METAR Reports From Nearby Airports

 

KTIW - Tacoma, Washington, USA
Distance from station: S 6mi, 10km
Updated: Sun, 28-May-2017 6:53am PDT
Clear
Clear
 Wind from SSW
Wind: SSW 5 mph , 7 km/h
Temperature: 54°F , 12°C
Dew Point: 52°F , 11°C
Humidity: 94%
Barometer: 30.13 inHg , 1020.3 hPa
Clouds: Clear
Visibility: 10 miles , 16 km
2017/05/28 13:53 KTIW 281353Z AUTO 21004KT 10SM CLR 12/11 A3013 RMK AO2 SLP199 T01220106
KPWT - Bremerton Ntnl, Washington, USA
Distance from station: NW 13mi, 20km
Updated: Sun, 28-May-2017 6:56am PDT
Clear
Clear
 Wind from SSW
Wind: SSW 3 mph , 6 km/h
Temperature: 54°F , 12°C
Dew Point: 52°F , 11°C
Humidity: 94%
Barometer: 30.12 inHg , 1020 hPa
Clouds: Clear
Visibility: 10 miles , 16 km
2017/05/28 13:56 KPWT 281356Z AUTO 20003KT 10SM CLR 12/11 A3012 RMK AO2 SLP212 T01220111
KSEA - Seattle/Metro, Washington, USA
Distance from station: ENE 14mi, 23km
Updated: Sun, 28-May-2017 6:53am PDT
Clear
Clear
 Wind from WSW
Wind: WSW 3 mph , 6 km/h
Temperature: 59°F , 15°C
Dew Point: 48°F , 9°C
Humidity: 68%
Barometer: 30.11 inHg , 1019.6 hPa
Clouds: Clear
Visibility: 10 miles , 16 km
2017/05/28 13:53 KSEA 281353Z 24003KT 10SM CLR 15/09 A3011 RMK AO2 SLP200 T01500094
 
KTCM - Tacoma/Mc Chord, Washington, USA
Distance from station: SSE 17mi, 28km
Updated: Sun, 28-May-2017 6:58am PDT
Clear
Clear
 Wind from W
Wind: W 5 mph , 7 km/h
Temperature: 57°F , 14°C
Dew Point: 55°F , 13°C
Humidity: 94%
Barometer: 30.12 inHg , 1020 hPa
Clouds: Clear
Visibility: 10 miles , 16 km
2017/05/28 13:58 KTCM 281358Z AUTO 27004KT 10SM CLR 14/13 A3012 RMK AO2 SLP202 T01350126 $
KBFI - Seattle/Boeing, Washington, USA
Distance from station: NE 19mi, 30km
Updated: Sun, 28-May-2017 6:53am PDT
Clear
Clear
 Wind from calm
Wind: Calm
Temperature: 61°F , 16°C
Dew Point: 52°F , 11°C
Humidity: 72%
Barometer: 30.10 inHg , 1019.3 hPa
Clouds: Clear
Visibility: 10 miles , 16 km
2017/05/28 13:53 KBFI 281353Z 00000KT 10SM CLR 16/11 A3010 RMK AO2 SLP193 T01560106
KGRF - Fort Lewis/Gray, Washington, USA
Distance from station: S 20mi, 32km
Updated: Sun, 28-May-2017 6:55am PDT
Clear
Clear
 Wind from varies
Wind: varies 1 mph , 2 km/h
Temperature: 55°F , 13°C
Dew Point: 50°F , 10°C
Humidity: 82%
Barometer: 30.15 inHg , 1021 hPa
Clouds: Clear
Visibility: 7 miles , 11 km
2017/05/28 13:55 KGRF 281355Z VRB01KT 7SM CLR 13/10 A3015 RMK AO2A SLP207 WND DATA ESTMD ALSTG/SLP ESTMD T01310100
 
KRNT - Renton, Washington, USA
Distance from station: ENE 20mi, 32km
Updated: Sun, 28-May-2017 6:53am PDT
Clear
Clear
 Wind from E
Wind: E 3 mph , 6 km/h
Temperature: 59°F , 15°C
Dew Point: 54°F , 12°C
Humidity: 82%
Barometer: 30.10 inHg , 1019.3 hPa
Clouds: Clear
Visibility: 10 miles , 16 km
2017/05/28 13:53 KRNT 281353Z 10003KT 10SM CLR 15/12 A3010 RMK AO2 SLP197 T01500122
KPLU - Puyallup/Thun, Washington, USA
Distance from station: SE 23mi, 36km
Updated: Sun, 28-May-2017 7:15am PDT

 Wind from calm
Wind: Calm
Temperature: 59°F , 15°C
Dew Point: 55°F , 13°C
Humidity: 88%
Barometer: 30.12 inHg , 1020 hPa
Visibility: 10 miles , 16 km
2017/05/28 14:15 KPLU 281415Z AUTO 00000KT 10SM 15/13 A3012 RMK AO2
KSHN - Shelton, Washington, USA
Distance from station: WSW 27mi, 43km
Updated: Sun, 28-May-2017 6:53am PDT
Overcast
Overcast
 Wind from WSW
Wind: WSW 9 mph , 15 km/h
Temperature: 52°F , 11°C
Dew Point: 50°F , 10°C
Humidity: 94%
Barometer: 30.10 inHg , 1019.3 hPa
Clouds: Overcast
Visibility: 7 miles , 11 km
Cloud details: Overcast 200 ft
2017/05/28 13:53 KSHN 281353Z AUTO 25008KT 7SM OVC002 11/10 A3010 RMK AO2 SLP193 T01110100
 
KOLM - Olympia, Washington, USA
Distance from station: SSW 30mi, 49km
Updated: Sun, 28-May-2017 6:54am PDT
Clear
Clear
 Wind from SSW
Wind: SSW 3 mph , 6 km/h
Temperature: 52°F , 11°C
Dew Point: 52°F , 11°C
Humidity: 100%
Barometer: 30.12 inHg , 1020 hPa
Clouds: Clear
Visibility: 10 miles , 16 km
2017/05/28 13:54 KOLM 281354Z AUTO 21003KT 10SM CLR 11/11 A3012 RMK AO2 SLP200 T01110106
KPAE - Everett, Washington, USA
Distance from station: NNE 41mi, 67km
Updated: Sun, 28-May-2017 6:53am PDT
Clear
Clear
 Wind from NW
Wind: NW 5 mph , 7 km/h
Temperature: 57°F , 14°C
Dew Point: 45°F , 7°C
Humidity: 63%
Barometer: 30.12 inHg , 1020 hPa
Clouds: Clear
Visibility: 10 miles , 16 km
2017/05/28 13:53 KPAE 281353Z 32004KT 10SM CLR 14/07 A3012 RMK AO2 SLP195 T01440072
KCLS - Chehalis Central, Washington, USA
Distance from station: SSW 50mi, 80km
Updated: Sun, 28-May-2017 6:55am PDT
Few Clouds
Few Clouds
 Wind from calm
Wind: Calm
Temperature: 54°F , 12°C
Dew Point: 52°F , 11°C
Humidity: 94%
Barometer: 30.13 inHg , 1020.3 hPa
Clouds: Few Clouds
Visibility: 10 miles , 16 km
Cloud details: Few Clouds 900 ft
2017/05/28 13:55 KCLS 281355Z AUTO 00000KT 10SM FEW009 12/11 A3013 RMK AO2